sensor_id;sensor_type;location;lat;lon;timestamp;P1;durP1;ratioP1;P2;durP2;ratioP2
55684;SDS011;41883;49.544;8.646;2022-08-14T00:00:26;5.18;;;3.83;;
55684;SDS011;41883;49.544;8.646;2022-08-14T00:02:52;4.03;;;3.63;;
55684;SDS011;41883;49.544;8.646;2022-08-14T00:05:18;3.97;;;3.50;;
55684;SDS011;41883;49.544;8.646;2022-08-14T00:07:45;4.38;;;3.83;;
55684;SDS011;41883;49.544;8.646;2022-08-14T00:10:13;5.95;;;3.83;;
55684;SDS011;41883;49.544;8.646;2022-08-14T00:12:43;5.60;;;3.78;;
55684;SDS011;41883;49.544;8.646;2022-08-14T00:20:10;4.57;;;3.78;;
55684;SDS011;41883;49.544;8.646;2022-08-14T00:22:36;5.55;;;3.47;;
55684;SDS011;41883;49.544;8.646;2022-08-14T00:25:04;4.22;;;3.50;;
55684;SDS011;41883;49.544;8.646;2022-08-14T00:27:31;4.40;;;3.42;;
55684;SDS011;41883;49.544;8.646;2022-08-14T00:29:57;4.10;;;3.70;;
55684;SDS011;41883;49.544;8.646;2022-08-14T00:32:23;4.65;;;3.70;;
55684;SDS011;41883;49.544;8.646;2022-08-14T00:34:48;5.47;;;3.80;;
55684;SDS011;41883;49.544;8.646;2022-08-14T00:37:14;5.23;;;4.17;;
55684;SDS011;41883;49.544;8.646;2022-08-14T00:39:39;4.30;;;3.90;;
55684;SDS011;41883;49.544;8.646;2022-08-14T00:42:04;5.68;;;4.13;;
55684;SDS011;41883;49.544;8.646;2022-08-14T00:44:30;4.65;;;3.83;;
55684;SDS011;41883;49.544;8.646;2022-08-14T00:46:55;5.13;;;4.28;;
55684;SDS011;41883;49.544;8.646;2022-08-14T00:49:21;3.72;;;3.40;;
55684;SDS011;41883;49.544;8.646;2022-08-14T00:51:46;5.65;;;4.07;;
55684;SDS011;41883;49.544;8.646;2022-08-14T00:54:12;4.75;;;4.00;;
55684;SDS011;41883;49.544;8.646;2022-08-14T00:56:38;5.22;;;3.72;;
55684;SDS011;41883;49.544;8.646;2022-08-14T00:59:04;4.72;;;4.18;;
55684;SDS011;41883;49.544;8.646;2022-08-14T01:01:29;6.40;;;4.50;;
55684;SDS011;41883;49.544;8.646;2022-08-14T01:03:57;5.35;;;3.90;;
55684;SDS011;41883;49.544;8.646;2022-08-14T01:06:25;4.80;;;4.10;;
55684;SDS011;41883;49.544;8.646;2022-08-14T01:08:52;5.05;;;4.13;;
55684;SDS011;41883;49.544;8.646;2022-08-14T01:11:19;4.13;;;3.70;;
55684;SDS011;41883;49.544;8.646;2022-08-14T01:13:45;5.68;;;4.38;;
55684;SDS011;41883;49.544;8.646;2022-08-14T01:16:13;4.30;;;3.90;;
55684;SDS011;41883;49.544;8.646;2022-08-14T01:18:40;4.97;;;4.03;;
55684;SDS011;41883;49.544;8.646;2022-08-14T01:23:57;4.40;;;4.00;;
55684;SDS011;41883;49.544;8.646;2022-08-14T01:26:24;5.18;;;4.40;;
55684;SDS011;41883;49.544;8.646;2022-08-14T01:28:53;5.20;;;4.55;;
55684;SDS011;41883;49.544;8.646;2022-08-14T01:31:23;5.03;;;4.53;;
55684;SDS011;41883;49.544;8.646;2022-08-14T01:33:52;6.45;;;4.38;;
55684;SDS011;41883;49.544;8.646;2022-08-14T01:36:20;6.28;;;4.50;;
55684;SDS011;41883;49.544;8.646;2022-08-14T01:38:47;5.13;;;4.60;;
55684;SDS011;41883;49.544;8.646;2022-08-14T01:41:15;5.13;;;4.35;;
55684;SDS011;41883;49.544;8.646;2022-08-14T01:46:27;8.45;;;5.68;;
55684;SDS011;41883;49.544;8.646;2022-08-14T01:48:54;5.35;;;4.85;;
55684;SDS011;41883;49.544;8.646;2022-08-14T01:51:22;5.25;;;4.57;;
55684;SDS011;41883;49.544;8.646;2022-08-14T01:53:51;9.20;;;5.00;;
55684;SDS011;41883;49.544;8.646;2022-08-14T01:56:20;5.13;;;4.63;;
55684;SDS011;41883;49.544;8.646;2022-08-14T01:58:47;6.05;;;5.05;;
55684;SDS011;41883;49.544;8.646;2022-08-14T02:01:14;5.47;;;4.60;;
55684;SDS011;41883;49.544;8.646;2022-08-14T02:03:40;5.78;;;4.60;;
55684;SDS011;41883;49.544;8.646;2022-08-14T02:06:06;7.47;;;4.97;;
55684;SDS011;41883;49.544;8.646;2022-08-14T02:08:32;5.20;;;4.70;;
55684;SDS011;41883;49.544;8.646;2022-08-14T02:11:02;5.10;;;4.60;;
55684;SDS011;41883;49.544;8.646;2022-08-14T02:13:41;5.05;;;4.50;;
55684;SDS011;41883;49.544;8.646;2022-08-14T02:16:07;4.35;;;3.95;;
55684;SDS011;41883;49.544;8.646;2022-08-14T02:18:34;6.13;;;4.85;;
55684;SDS011;41883;49.544;8.646;2022-08-14T02:21:00;5.95;;;4.60;;
55684;SDS011;41883;49.544;8.646;2022-08-14T02:23:25;5.28;;;4.78;;
55684;SDS011;41883;49.544;8.646;2022-08-14T02:25:51;5.07;;;4.57;;
55684;SDS011;41883;49.544;8.646;2022-08-14T02:28:16;5.13;;;4.63;;
55684;SDS011;41883;49.544;8.646;2022-08-14T02:30:41;5.55;;;4.65;;
55684;SDS011;41883;49.544;8.646;2022-08-14T02:33:07;5.28;;;4.57;;
55684;SDS011;41883;49.544;8.646;2022-08-14T02:35:32;5.03;;;4.43;;
55684;SDS011;41883;49.544;8.646;2022-08-14T02:37:58;4.90;;;4.10;;
55684;SDS011;41883;49.544;8.646;2022-08-14T02:40:24;4.30;;;3.90;;
55684;SDS011;41883;49.544;8.646;2022-08-14T02:42:50;5.63;;;4.13;;
55684;SDS011;41883;49.544;8.646;2022-08-14T02:45:15;4.40;;;3.72;;
55684;SDS011;41883;49.544;8.646;2022-08-14T02:47:41;4.68;;;4.07;;
55684;SDS011;41883;49.544;8.646;2022-08-14T02:50:06;4.53;;;3.70;;
55684;SDS011;41883;49.544;8.646;2022-08-14T02:52:32;5.13;;;3.80;;
55684;SDS011;41883;49.544;8.646;2022-08-14T02:54:58;4.70;;;4.30;;
55684;SDS011;41883;49.544;8.646;2022-08-14T02:57:25;4.40;;;4.00;;
55684;SDS011;41883;49.544;8.646;2022-08-14T02:59:51;5.53;;;5.00;;
55684;SDS011;41883;49.544;8.646;2022-08-14T03:02:17;6.05;;;5.15;;
55684;SDS011;41883;49.544;8.646;2022-08-14T03:04:42;5.72;;;4.47;;
55684;SDS011;41883;49.544;8.646;2022-08-14T03:07:07;5.70;;;5.20;;
55684;SDS011;41883;49.544;8.646;2022-08-14T03:09:36;5.38;;;4.88;;
55684;SDS011;41883;49.544;8.646;2022-08-14T03:12:03;5.78;;;5.10;;
55684;SDS011;41883;49.544;8.646;2022-08-14T03:14:29;5.93;;;5.32;;
55684;SDS011;41883;49.544;8.646;2022-08-14T03:16:54;5.63;;;4.97;;
55684;SDS011;41883;49.544;8.646;2022-08-14T03:19:21;6.15;;;5.22;;
55684;SDS011;41883;49.544;8.646;2022-08-14T03:21:46;6.22;;;5.63;;
55684;SDS011;41883;49.544;8.646;2022-08-14T03:24:12;6.47;;;4.70;;
55684;SDS011;41883;49.544;8.646;2022-08-14T03:26:42;6.38;;;5.20;;
55684;SDS011;41883;49.544;8.646;2022-08-14T03:31:37;5.85;;;5.07;;
55684;SDS011;41883;49.544;8.646;2022-08-14T03:36:30;5.80;;;5.20;;
55684;SDS011;41883;49.544;8.646;2022-08-14T03:38:58;7.28;;;5.10;;
55684;SDS011;41883;49.544;8.646;2022-08-14T03:43:55;6.38;;;5.28;;
55684;SDS011;41883;49.544;8.646;2022-08-14T03:46:26;5.90;;;5.30;;
55684;SDS011;41883;49.544;8.646;2022-08-14T03:51:25;5.78;;;5.18;;
55684;SDS011;41883;49.544;8.646;2022-08-14T03:53:53;5.47;;;4.97;;
55684;SDS011;41883;49.544;8.646;2022-08-14T03:56:22;6.55;;;5.85;;
55684;SDS011;41883;49.544;8.646;2022-08-14T03:58:50;7.90;;;5.10;;
55684;SDS011;41883;49.544;8.646;2022-08-14T04:01:19;6.35;;;5.05;;
55684;SDS011;41883;49.544;8.646;2022-08-14T04:03:47;6.05;;;5.40;;
55684;SDS011;41883;49.544;8.646;2022-08-14T04:08:40;5.97;;;4.80;;
55684;SDS011;41883;49.544;8.646;2022-08-14T04:11:07;4.43;;;4.03;;
55684;SDS011;41883;49.544;8.646;2022-08-14T04:13:34;4.93;;;4.43;;
55684;SDS011;41883;49.544;8.646;2022-08-14T04:20:54;5.60;;;5.10;;
55684;SDS011;41883;49.544;8.646;2022-08-14T04:23:22;5.55;;;4.50;;
55684;SDS011;41883;49.544;8.646;2022-08-14T04:25:48;4.25;;;3.85;;
55684;SDS011;41883;49.544;8.646;2022-08-14T04:28:17;3.30;;;2.95;;
55684;SDS011;41883;49.544;8.646;2022-08-14T04:30:43;6.97;;;4.93;;
55684;SDS011;41883;49.544;8.646;2022-08-14T04:33:09;6.03;;;5.43;;
55684;SDS011;41883;49.544;8.646;2022-08-14T04:40:50;5.45;;;4.90;;
55684;SDS011;41883;49.544;8.646;2022-08-14T04:43:33;5.20;;;4.70;;
55684;SDS011;41883;49.544;8.646;2022-08-14T04:48:30;5.10;;;4.60;;
55684;SDS011;41883;49.544;8.646;2022-08-14T04:50:55;5.65;;;5.05;;
55684;SDS011;41883;49.544;8.646;2022-08-14T04:53:23;3.80;;;3.50;;
55684;SDS011;41883;49.544;8.646;2022-08-14T04:55:49;3.50;;;2.90;;
55684;SDS011;41883;49.544;8.646;2022-08-14T04:58:19;6.07;;;4.57;;
55684;SDS011;41883;49.544;8.646;2022-08-14T05:00:51;5.82;;;5.22;;
55684;SDS011;41883;49.544;8.646;2022-08-14T05:03:18;6.28;;;5.68;;
55684;SDS011;41883;49.544;8.646;2022-08-14T05:05:48;6.15;;;5.25;;
55684;SDS011;41883;49.544;8.646;2022-08-14T05:08:14;4.60;;;3.53;;
55684;SDS011;41883;49.544;8.646;2022-08-14T05:10:40;5.63;;;4.57;;
55684;SDS011;41883;49.544;8.646;2022-08-14T05:13:08;4.82;;;4.35;;
55684;SDS011;41883;49.544;8.646;2022-08-14T05:15:34;7.00;;;5.75;;
55684;SDS011;41883;49.544;8.646;2022-08-14T05:20:27;7.40;;;5.65;;
55684;SDS011;41883;49.544;8.646;2022-08-14T05:22:54;6.43;;;5.40;;
55684;SDS011;41883;49.544;8.646;2022-08-14T05:25:19;6.03;;;4.95;;
55684;SDS011;41883;49.544;8.646;2022-08-14T05:27:45;5.28;;;4.75;;
55684;SDS011;41883;49.544;8.646;2022-08-14T05:30:10;5.60;;;4.20;;
55684;SDS011;41883;49.544;8.646;2022-08-14T05:32:36;3.85;;;3.45;;
55684;SDS011;41883;49.544;8.646;2022-08-14T05:35:02;5.85;;;5.07;;
55684;SDS011;41883;49.544;8.646;2022-08-14T05:37:28;5.90;;;5.30;;
55684;SDS011;41883;49.544;8.646;2022-08-14T05:39:54;5.55;;;5.05;;
55684;SDS011;41883;49.544;8.646;2022-08-14T05:42:20;5.63;;;4.95;;
55684;SDS011;41883;49.544;8.646;2022-08-14T05:44:46;4.68;;;4.20;;
55684;SDS011;41883;49.544;8.646;2022-08-14T05:47:11;5.05;;;4.28;;
55684;SDS011;41883;49.544;8.646;2022-08-14T05:49:36;5.50;;;5.00;;
55684;SDS011;41883;49.544;8.646;2022-08-14T05:54:27;4.75;;;4.32;;
55684;SDS011;41883;49.544;8.646;2022-08-14T05:59:18;6.17;;;4.90;;
55684;SDS011;41883;49.544;8.646;2022-08-14T06:01:44;5.68;;;5.10;;
55684;SDS011;41883;49.544;8.646;2022-08-14T06:04:09;5.75;;;5.13;;
55684;SDS011;41883;49.544;8.646;2022-08-14T06:06:34;5.57;;;4.83;;
55684;SDS011;41883;49.544;8.646;2022-08-14T06:11:25;5.87;;;4.80;;
55684;SDS011;41883;49.544;8.646;2022-08-14T06:13:51;5.38;;;4.88;;
55684;SDS011;41883;49.544;8.646;2022-08-14T06:16:16;5.68;;;4.30;;
55684;SDS011;41883;49.544;8.646;2022-08-14T06:18:41;5.20;;;4.70;;
55684;SDS011;41883;49.544;8.646;2022-08-14T06:21:07;5.43;;;4.60;;
55684;SDS011;41883;49.544;8.646;2022-08-14T06:23:32;5.28;;;4.75;;
55684;SDS011;41883;49.544;8.646;2022-08-14T06:25:58;5.03;;;4.47;;
55684;SDS011;41883;49.544;8.646;2022-08-14T06:28:24;4.80;;;4.40;;
55684;SDS011;41883;49.544;8.646;2022-08-14T06:30:50;5.95;;;4.80;;
55684;SDS011;41883;49.544;8.646;2022-08-14T06:33:17;6.45;;;4.80;;
55684;SDS011;41883;49.544;8.646;2022-08-14T06:35:43;5.88;;;4.70;;
55684;SDS011;41883;49.544;8.646;2022-08-14T06:38:12;4.75;;;4.20;;
55684;SDS011;41883;49.544;8.646;2022-08-14T06:43:05;4.70;;;4.20;;
55684;SDS011;41883;49.544;8.646;2022-08-14T06:45:33;4.22;;;3.80;;
55684;SDS011;41883;49.544;8.646;2022-08-14T06:48:00;4.32;;;3.70;;
55684;SDS011;41883;49.544;8.646;2022-08-14T06:50:26;5.57;;;4.65;;
55684;SDS011;41883;49.544;8.646;2022-08-14T06:52:53;5.50;;;4.50;;
55684;SDS011;41883;49.544;8.646;2022-08-14T06:55:19;4.72;;;4.22;;
55684;SDS011;41883;49.544;8.646;2022-08-14T06:57:48;4.63;;;3.85;;
55684;SDS011;41883;49.544;8.646;2022-08-14T07:00:27;4.63;;;4.18;;
55684;SDS011;41883;49.544;8.646;2022-08-14T07:02:53;4.70;;;4.30;;
55684;SDS011;41883;49.544;8.646;2022-08-14T07:05:37;5.57;;;4.43;;
55684;SDS011;41883;49.544;8.646;2022-08-14T07:08:19;5.32;;;4.57;;
55684;SDS011;41883;49.544;8.646;2022-08-14T07:10:49;4.50;;;4.10;;
55684;SDS011;41883;49.544;8.646;2022-08-14T07:13:15;5.57;;;4.97;;
55684;SDS011;41883;49.544;8.646;2022-08-14T07:15:45;4.60;;;4.20;;
55684;SDS011;41883;49.544;8.646;2022-08-14T07:18:18;5.00;;;4.50;;
55684;SDS011;41883;49.544;8.646;2022-08-14T07:20:45;6.72;;;4.72;;
55684;SDS011;41883;49.544;8.646;2022-08-14T07:23:10;5.35;;;4.13;;
55684;SDS011;41883;49.544;8.646;2022-08-14T07:25:37;4.32;;;3.92;;
55684;SDS011;41883;49.544;8.646;2022-08-14T07:28:07;5.18;;;3.72;;
55684;SDS011;41883;49.544;8.646;2022-08-14T07:30:37;5.32;;;4.65;;
55684;SDS011;41883;49.544;8.646;2022-08-14T07:33:03;5.32;;;4.32;;
55684;SDS011;41883;49.544;8.646;2022-08-14T07:35:29;6.80;;;4.75;;
55684;SDS011;41883;49.544;8.646;2022-08-14T07:37:55;5.18;;;4.35;;
55684;SDS011;41883;49.544;8.646;2022-08-14T07:40:21;4.55;;;3.95;;
55684;SDS011;41883;49.544;8.646;2022-08-14T07:42:46;4.53;;;3.80;;
55684;SDS011;41883;49.544;8.646;2022-08-14T07:45:11;4.95;;;3.45;;
55684;SDS011;41883;49.544;8.646;2022-08-14T07:55:04;4.30;;;3.15;;
55684;SDS011;41883;49.544;8.646;2022-08-14T07:57:30;2.83;;;2.50;;
55684;SDS011;41883;49.544;8.646;2022-08-14T07:59:56;3.10;;;2.80;;
55684;SDS011;41883;49.544;8.646;2022-08-14T08:02:21;2.40;;;2.20;;
55684;SDS011;41883;49.544;8.646;2022-08-14T08:04:49;2.97;;;2.60;;
55684;SDS011;41883;49.544;8.646;2022-08-14T08:07:17;2.35;;;2.15;;
55684;SDS011;41883;49.544;8.646;2022-08-14T08:09:47;2.38;;;2.10;;
55684;SDS011;41883;49.544;8.646;2022-08-14T08:12:14;3.30;;;2.65;;
55684;SDS011;41883;49.544;8.646;2022-08-14T08:14:43;4.43;;;3.00;;
55684;SDS011;41883;49.544;8.646;2022-08-14T08:17:09;2.90;;;2.58;;
55684;SDS011;41883;49.544;8.646;2022-08-14T08:19:35;3.78;;;3.35;;
55684;SDS011;41883;49.544;8.646;2022-08-14T08:22:02;3.17;;;2.60;;
55684;SDS011;41883;49.544;8.646;2022-08-14T08:24:28;3.10;;;2.80;;
55684;SDS011;41883;49.544;8.646;2022-08-14T08:26:53;3.63;;;2.75;;
55684;SDS011;41883;49.544;8.646;2022-08-14T08:29:20;3.10;;;2.58;;
55684;SDS011;41883;49.544;8.646;2022-08-14T08:31:47;2.90;;;2.22;;
55684;SDS011;41883;49.544;8.646;2022-08-14T08:34:17;3.17;;;2.85;;
55684;SDS011;41883;49.544;8.646;2022-08-14T08:36:43;4.25;;;2.90;;
55684;SDS011;41883;49.544;8.646;2022-08-14T08:39:09;2.65;;;2.42;;
55684;SDS011;41883;49.544;8.646;2022-08-14T08:41:41;2.78;;;2.58;;
55684;SDS011;41883;49.544;8.646;2022-08-14T08:44:09;2.20;;;2.00;;
55684;SDS011;41883;49.544;8.646;2022-08-14T08:51:26;3.10;;;2.70;;
55684;SDS011;41883;49.544;8.646;2022-08-14T08:56:33;3.83;;;2.47;;
55684;SDS011;41883;49.544;8.646;2022-08-14T08:59:00;2.70;;;2.00;;
55684;SDS011;41883;49.544;8.646;2022-08-14T09:01:27;3.13;;;2.53;;
55684;SDS011;41883;49.544;8.646;2022-08-14T09:04:01;4.45;;;3.08;;
55684;SDS011;41883;49.544;8.646;2022-08-14T09:06:27;2.70;;;2.50;;
55684;SDS011;41883;49.544;8.646;2022-08-14T09:08:53;2.83;;;2.40;;
55684;SDS011;41883;49.544;8.646;2022-08-14T09:11:18;3.13;;;2.20;;
55684;SDS011;41883;49.544;8.646;2022-08-14T09:13:43;3.05;;;2.75;;
55684;SDS011;41883;49.544;8.646;2022-08-14T09:16:09;2.10;;;1.90;;
55684;SDS011;41883;49.544;8.646;2022-08-14T09:18:34;2.83;;;2.13;;
55684;SDS011;41883;49.544;8.646;2022-08-14T09:21:00;2.63;;;2.30;;
55684;SDS011;41883;49.544;8.646;2022-08-14T09:23:25;2.72;;;2.10;;
55684;SDS011;41883;49.544;8.646;2022-08-14T09:25:50;2.90;;;2.60;;
55684;SDS011;41883;49.544;8.646;2022-08-14T09:28:17;4.47;;;2.45;;
55684;SDS011;41883;49.544;8.646;2022-08-14T09:30:45;2.30;;;2.10;;
55684;SDS011;41883;49.544;8.646;2022-08-14T09:33:36;2.03;;;1.70;;
55684;SDS011;41883;49.544;8.646;2022-08-14T09:39:11;1.77;;;1.60;;
55684;SDS011;41883;49.544;8.646;2022-08-14T09:41:48;3.13;;;1.80;;
55684;SDS011;41883;49.544;8.646;2022-08-14T09:44:51;1.83;;;1.55;;
55684;SDS011;41883;49.544;8.646;2022-08-14T09:47:38;1.92;;;1.45;;
55684;SDS011;41883;49.544;8.646;2022-08-14T09:52:57;1.80;;;1.50;;
55684;SDS011;41883;49.544;8.646;2022-08-14T09:55:28;1.42;;;1.20;;
55684;SDS011;41883;49.544;8.646;2022-08-14T09:58:18;1.75;;;1.20;;
55684;SDS011;41883;49.544;8.646;2022-08-14T10:03:24;1.85;;;1.50;;
55684;SDS011;41883;49.544;8.646;2022-08-14T11:25:00;3.13;;;1.60;;
55684;SDS011;41883;49.544;8.646;2022-08-14T11:27:28;1.92;;;1.58;;
55684;SDS011;41883;49.544;8.646;2022-08-14T11:29:56;1.83;;;1.60;;
55684;SDS011;41883;49.544;8.646;2022-08-14T11:32:25;2.05;;;1.67;;
55684;SDS011;41883;49.544;8.646;2022-08-14T11:34:50;1.60;;;1.48;;
55684;SDS011;41883;49.544;8.646;2022-08-14T11:37:17;2.50;;;1.80;;
55684;SDS011;41883;49.544;8.646;2022-08-14T11:39:42;1.92;;;1.60;;
55684;SDS011;41883;49.544;8.646;2022-08-14T11:42:17;2.20;;;1.80;;
55684;SDS011;41883;49.544;8.646;2022-08-14T11:44:44;2.30;;;1.80;;
55684;SDS011;41883;49.544;8.646;2022-08-14T11:47:10;1.98;;;1.75;;
55684;SDS011;41883;49.544;8.646;2022-08-14T11:49:43;2.40;;;1.67;;
55684;SDS011;41883;49.544;8.646;2022-08-14T11:52:08;2.05;;;1.67;;
55684;SDS011;41883;49.544;8.646;2022-08-14T11:54:36;3.00;;;1.60;;
55684;SDS011;41883;49.544;8.646;2022-08-14T11:57:02;2.92;;;1.70;;
55684;SDS011;41883;49.544;8.646;2022-08-14T11:59:29;5.18;;;2.22;;
55684;SDS011;41883;49.544;8.646;2022-08-14T12:01:56;4.15;;;1.90;;
55684;SDS011;41883;49.544;8.646;2022-08-14T12:04:35;2.65;;;1.98;;
55684;SDS011;41883;49.544;8.646;2022-08-14T12:07:12;2.35;;;1.80;;
55684;SDS011;41883;49.544;8.646;2022-08-14T12:09:37;3.63;;;2.20;;
55684;SDS011;41883;49.544;8.646;2022-08-14T12:12:16;2.40;;;1.80;;
55684;SDS011;41883;49.544;8.646;2022-08-14T12:14:46;2.73;;;2.00;;
55684;SDS011;41883;49.544;8.646;2022-08-14T12:17:22;3.03;;;1.80;;
55684;SDS011;41883;49.544;8.646;2022-08-14T12:19:55;4.30;;;2.00;;
55684;SDS011;41883;49.544;8.646;2022-08-14T12:22:35;2.90;;;2.03;;
55684;SDS011;41883;49.544;8.646;2022-08-14T12:25:04;2.97;;;1.95;;
55684;SDS011;41883;49.544;8.646;2022-08-14T12:27:44;2.10;;;1.90;;
55684;SDS011;41883;49.544;8.646;2022-08-14T12:30:13;2.30;;;2.00;;
55684;SDS011;41883;49.544;8.646;2022-08-14T12:32:49;2.20;;;1.88;;
55684;SDS011;41883;49.544;8.646;2022-08-14T12:35:15;2.35;;;2.00;;
55684;SDS011;41883;49.544;8.646;2022-08-14T12:37:47;2.58;;;2.00;;
55684;SDS011;41883;49.544;8.646;2022-08-14T12:40:14;3.53;;;2.20;;
55684;SDS011;41883;49.544;8.646;2022-08-14T12:42:41;4.22;;;2.38;;
55684;SDS011;41883;49.544;8.646;2022-08-14T12:45:07;3.35;;;2.40;;
55684;SDS011;41883;49.544;8.646;2022-08-14T12:47:37;2.53;;;2.30;;
55684;SDS011;41883;49.544;8.646;2022-08-14T12:50:06;2.83;;;2.10;;
55684;SDS011;41883;49.544;8.646;2022-08-14T12:52:33;2.40;;;2.13;;
55684;SDS011;41883;49.544;8.646;2022-08-14T12:55:03;4.47;;;2.30;;
55684;SDS011;41883;49.544;8.646;2022-08-14T12:57:38;3.88;;;2.42;;
55684;SDS011;41883;49.544;8.646;2022-08-14T13:00:12;2.53;;;2.20;;
55684;SDS011;41883;49.544;8.646;2022-08-14T13:02:41;6.00;;;2.30;;
55684;SDS011;41883;49.544;8.646;2022-08-14T13:05:09;3.22;;;2.30;;
55684;SDS011;41883;49.544;8.646;2022-08-14T13:07:36;2.90;;;2.35;;
55684;SDS011;41883;49.544;8.646;2022-08-14T13:10:04;2.80;;;2.03;;
55684;SDS011;41883;49.544;8.646;2022-08-14T13:12:31;2.40;;;2.20;;
55684;SDS011;41883;49.544;8.646;2022-08-14T13:14:57;2.33;;;2.10;;
55684;SDS011;41883;49.544;8.646;2022-08-14T13:17:26;2.65;;;2.22;;
55684;SDS011;41883;49.544;8.646;2022-08-14T13:22:21;3.05;;;2.60;;
55684;SDS011;41883;49.544;8.646;2022-08-14T13:24:50;2.90;;;2.60;;
55684;SDS011;41883;49.544;8.646;2022-08-14T13:27:18;3.80;;;2.50;;
55684;SDS011;41883;49.544;8.646;2022-08-14T13:29:47;3.45;;;3.03;;
55684;SDS011;41883;49.544;8.646;2022-08-14T13:32:16;3.47;;;2.92;;
55684;SDS011;41883;49.544;8.646;2022-08-14T13:34:42;3.33;;;2.60;;
55684;SDS011;41883;49.544;8.646;2022-08-14T13:37:09;3.15;;;2.50;;
55684;SDS011;41883;49.544;8.646;2022-08-14T13:39:34;3.97;;;2.80;;
55684;SDS011;41883;49.544;8.646;2022-08-14T13:42:02;3.20;;;2.60;;
55684;SDS011;41883;49.544;8.646;2022-08-14T13:44:31;3.42;;;2.70;;
55684;SDS011;41883;49.544;8.646;2022-08-14T13:46:59;2.85;;;2.50;;
55684;SDS011;41883;49.544;8.646;2022-08-14T13:49:24;4.40;;;2.50;;
55684;SDS011;41883;49.544;8.646;2022-08-14T13:51:50;2.50;;;2.30;;
55684;SDS011;41883;49.544;8.646;2022-08-14T13:54:17;3.38;;;2.30;;
55684;SDS011;41883;49.544;8.646;2022-08-14T13:56:45;2.80;;;2.50;;
55684;SDS011;41883;49.544;8.646;2022-08-14T13:59:11;2.88;;;2.58;;
55684;SDS011;41883;49.544;8.646;2022-08-14T14:01:37;2.80;;;2.20;;
55684;SDS011;41883;49.544;8.646;2022-08-14T14:04:05;3.78;;;2.20;;
55684;SDS011;41883;49.544;8.646;2022-08-14T14:06:32;2.92;;;2.30;;
55684;SDS011;41883;49.544;8.646;2022-08-14T14:08:59;4.32;;;2.35;;
55684;SDS011;41883;49.544;8.646;2022-08-14T14:11:26;3.17;;;2.30;;
55684;SDS011;41883;49.544;8.646;2022-08-14T14:13:53;3.28;;;2.30;;
55684;SDS011;41883;49.544;8.646;2022-08-14T14:16:20;3.78;;;2.50;;
55684;SDS011;41883;49.544;8.646;2022-08-14T14:18:47;2.92;;;2.40;;
55684;SDS011;41883;49.544;8.646;2022-08-14T14:21:16;2.78;;;2.30;;
55684;SDS011;41883;49.544;8.646;2022-08-14T14:23:43;3.55;;;2.78;;
55684;SDS011;41883;49.544;8.646;2022-08-14T14:26:11;3.63;;;2.53;;
55684;SDS011;41883;49.544;8.646;2022-08-14T14:31:06;3.10;;;2.80;;
55684;SDS011;41883;49.544;8.646;2022-08-14T14:33:32;2.97;;;2.50;;
55684;SDS011;41883;49.544;8.646;2022-08-14T14:35:59;3.22;;;2.70;;
55684;SDS011;41883;49.544;8.646;2022-08-14T14:38:26;3.30;;;2.90;;
55684;SDS011;41883;49.544;8.646;2022-08-14T14:40:56;2.78;;;2.50;;
55684;SDS011;41883;49.544;8.646;2022-08-14T14:43:22;2.80;;;2.40;;
55684;SDS011;41883;49.544;8.646;2022-08-14T14:45:50;2.80;;;2.10;;
55684;SDS011;41883;49.544;8.646;2022-08-14T14:48:18;2.55;;;2.25;;
55684;SDS011;41883;49.544;8.646;2022-08-14T14:50:44;2.57;;;2.23;;
55684;SDS011;41883;49.544;8.646;2022-08-14T14:53:10;2.45;;;2.10;;
55684;SDS011;41883;49.544;8.646;2022-08-14T14:55:35;2.80;;;2.47;;
55684;SDS011;41883;49.544;8.646;2022-08-14T14:58:02;4.57;;;2.20;;
55684;SDS011;41883;49.544;8.646;2022-08-14T15:00:29;2.90;;;2.13;;
55684;SDS011;41883;49.544;8.646;2022-08-14T15:02:55;2.55;;;2.20;;
55684;SDS011;41883;49.544;8.646;2022-08-14T15:05:21;3.30;;;2.10;;
55684;SDS011;41883;49.544;8.646;2022-08-14T15:07:48;3.42;;;2.17;;
55684;SDS011;41883;49.544;8.646;2022-08-14T15:10:16;2.53;;;2.25;;
55684;SDS011;41883;49.544;8.646;2022-08-14T15:12:43;2.45;;;2.25;;
55684;SDS011;41883;49.544;8.646;2022-08-14T15:15:09;4.72;;;2.28;;
55684;SDS011;41883;49.544;8.646;2022-08-14T15:17:36;4.10;;;2.25;;
55684;SDS011;41883;49.544;8.646;2022-08-14T15:20:05;5.00;;;2.30;;
55684;SDS011;41883;49.544;8.646;2022-08-14T15:22:34;3.30;;;1.90;;
55684;SDS011;41883;49.544;8.646;2022-08-14T15:25:04;3.42;;;2.60;;
55684;SDS011;41883;49.544;8.646;2022-08-14T15:27:30;2.60;;;2.28;;
55684;SDS011;41883;49.544;8.646;2022-08-14T15:29:56;4.93;;;2.20;;
55684;SDS011;41883;49.544;8.646;2022-08-14T15:32:22;2.78;;;2.20;;
55684;SDS011;41883;49.544;8.646;2022-08-14T15:34:48;2.65;;;2.13;;
55684;SDS011;41883;49.544;8.646;2022-08-14T15:39:38;3.70;;;2.20;;
55684;SDS011;41883;49.544;8.646;2022-08-14T15:42:04;2.53;;;2.00;;
55684;SDS011;41883;49.544;8.646;2022-08-14T15:44:30;2.90;;;2.00;;
55684;SDS011;41883;49.544;8.646;2022-08-14T15:54:17;3.40;;;2.38;;
55684;SDS011;41883;49.544;8.646;2022-08-14T15:56:42;2.45;;;2.05;;
55684;SDS011;41883;49.544;8.646;2022-08-14T15:59:09;2.78;;;2.10;;
55684;SDS011;41883;49.544;8.646;2022-08-14T16:01:34;2.42;;;2.03;;
55684;SDS011;41883;49.544;8.646;2022-08-14T16:04:00;2.30;;;2.00;;
55684;SDS011;41883;49.544;8.646;2022-08-14T16:06:27;2.13;;;1.80;;
55684;SDS011;41883;49.544;8.646;2022-08-14T16:08:56;2.93;;;2.10;;
55684;SDS011;41883;49.544;8.646;2022-08-14T16:11:22;4.90;;;2.15;;
55684;SDS011;41883;49.544;8.646;2022-08-14T16:13:48;3.17;;;2.35;;
55684;SDS011;41883;49.544;8.646;2022-08-14T16:16:19;2.97;;;2.35;;
55684;SDS011;41883;49.544;8.646;2022-08-14T16:18:47;2.83;;;2.28;;
55684;SDS011;41883;49.544;8.646;2022-08-14T16:21:14;3.85;;;2.10;;
55684;SDS011;41883;49.544;8.646;2022-08-14T16:23:46;2.58;;;2.28;;
55684;SDS011;41883;49.544;8.646;2022-08-14T16:26:13;2.08;;;1.70;;
55684;SDS011;41883;49.544;8.646;2022-08-14T16:28:43;3.47;;;2.00;;
55684;SDS011;41883;49.544;8.646;2022-08-14T16:31:09;2.50;;;2.03;;
55684;SDS011;41883;49.544;8.646;2022-08-14T16:33:34;2.63;;;1.90;;
55684;SDS011;41883;49.544;8.646;2022-08-14T16:36:00;2.83;;;2.00;;
55684;SDS011;41883;49.544;8.646;2022-08-14T16:38:27;2.72;;;1.90;;
55684;SDS011;41883;49.544;8.646;2022-08-14T16:40:58;3.42;;;2.10;;
55684;SDS011;41883;49.544;8.646;2022-08-14T16:43:41;2.10;;;1.88;;
55684;SDS011;41883;49.544;8.646;2022-08-14T16:46:12;2.65;;;2.05;;
55684;SDS011;41883;49.544;8.646;2022-08-14T16:48:47;2.65;;;2.00;;
55684;SDS011;41883;49.544;8.646;2022-08-14T16:51:15;2.25;;;2.03;;
55684;SDS011;41883;49.544;8.646;2022-08-14T16:53:42;2.35;;;1.90;;
55684;SDS011;41883;49.544;8.646;2022-08-14T16:56:17;2.78;;;2.00;;
55684;SDS011;41883;49.544;8.646;2022-08-14T16:58:47;2.00;;;1.80;;
55684;SDS011;41883;49.544;8.646;2022-08-14T17:01:15;2.05;;;1.70;;
55684;SDS011;41883;49.544;8.646;2022-08-14T17:06:37;2.35;;;2.15;;
55684;SDS011;41883;49.544;8.646;2022-08-14T17:09:07;3.22;;;2.20;;
55684;SDS011;41883;49.544;8.646;2022-08-14T17:14:25;2.97;;;2.20;;
55684;SDS011;41883;49.544;8.646;2022-08-14T17:17:12;3.30;;;2.10;;
55684;SDS011;41883;49.544;8.646;2022-08-14T17:19:37;2.08;;;1.88;;
55684;SDS011;41883;49.544;8.646;2022-08-14T17:22:05;2.42;;;1.88;;
55684;SDS011;41883;49.544;8.646;2022-08-14T17:24:33;2.70;;;1.80;;
55684;SDS011;41883;49.544;8.646;2022-08-14T17:27:00;2.20;;;1.67;;
55684;SDS011;41883;49.544;8.646;2022-08-14T17:29:26;2.38;;;1.67;;
55684;SDS011;41883;49.544;8.646;2022-08-14T17:32:14;3.55;;;1.92;;
55684;SDS011;41883;49.544;8.646;2022-08-14T17:34:49;3.30;;;2.03;;
55684;SDS011;41883;49.544;8.646;2022-08-14T17:37:31;3.30;;;2.00;;
55684;SDS011;41883;49.544;8.646;2022-08-14T17:40:08;4.15;;;1.90;;
55684;SDS011;41883;49.544;8.646;2022-08-14T17:45:13;4.40;;;2.30;;